sensor_id;sensor_type;location;lat;lon;timestamp;temperature;humidity
14008;DHT22;61651;45.508;12.232;2022-07-11T00:02:54;26.40;99.90
14008;DHT22;61651;45.508;12.232;2022-07-11T00:05:56;26.30;99.90
14008;DHT22;61651;45.508;12.232;2022-07-11T00:08:58;26.30;99.90
14008;DHT22;61651;45.508;12.232;2022-07-11T00:12:00;26.30;99.90
14008;DHT22;61651;45.508;12.232;2022-07-11T00:15:03;26.30;99.90
14008;DHT22;61651;45.508;12.232;2022-07-11T00:18:06;26.30;99.90
14008;DHT22;61651;45.508;12.232;2022-07-11T00:21:08;26.30;99.90
14008;DHT22;61651;45.508;12.232;2022-07-11T00:24:10;26.30;99.90
14008;DHT22;61651;45.508;12.232;2022-07-11T00:27:12;26.30;99.90
14008;DHT22;61651;45.508;12.232;2022-07-11T00:30:14;26.20;99.90
14008;DHT22;61651;45.508;12.232;2022-07-11T00:33:18;26.20;99.90
14008;DHT22;61651;45.508;12.232;2022-07-11T00:36:20;26.10;99.90
14008;DHT22;61651;45.508;12.232;2022-07-11T00:39:22;26.10;99.90
14008;DHT22;61651;45.508;12.232;2022-07-11T00:42:24;26.10;99.90
14008;DHT22;61651;45.508;12.232;2022-07-11T00:45:26;26.10;99.90
14008;DHT22;61651;45.508;12.232;2022-07-11T00:48:30;26.00;99.90
14008;DHT22;61651;45.508;12.232;2022-07-11T00:51:32;26.00;99.90
14008;DHT22;61651;45.508;12.232;2022-07-11T00:54:34;26.00;99.90
14008;DHT22;61651;45.508;12.232;2022-07-11T00:57:37;25.90;99.90
14008;DHT22;61651;45.508;12.232;2022-07-11T01:00:40;25.90;99.90
14008;DHT22;61651;45.508;12.232;2022-07-11T01:03:43;25.90;99.90
14008;DHT22;61651;45.508;12.232;2022-07-11T01:06:46;25.90;99.90
14008;DHT22;61651;45.508;12.232;2022-07-11T01:09:50;25.90;99.90
14008;DHT22;61651;45.508;12.232;2022-07-11T01:12:52;25.80;99.90
14008;DHT22;61651;45.508;12.232;2022-07-11T01:16:07;25.70;99.90
14008;DHT22;61651;45.508;12.232;2022-07-11T01:19:10;25.80;99.90
14008;DHT22;61651;45.508;12.232;2022-07-11T01:22:14;25.80;99.90
14008;DHT22;61651;45.508;12.232;2022-07-11T01:25:18;25.70;99.90
14008;DHT22;61651;45.508;12.232;2022-07-11T01:28:31;25.70;99.90
14008;DHT22;61651;45.508;12.232;2022-07-11T01:31:33;25.70;99.90
14008;DHT22;61651;45.508;12.232;2022-07-11T01:34:35;25.70;99.90
14008;DHT22;61651;45.508;12.232;2022-07-11T01:37:37;25.70;99.90
14008;DHT22;61651;45.508;12.232;2022-07-11T01:40:40;25.60;99.90
14008;DHT22;61651;45.508;12.232;2022-07-11T01:43:42;25.60;99.90
14008;DHT22;61651;45.508;12.232;2022-07-11T01:46:44;25.70;99.90
14008;DHT22;61651;45.508;12.232;2022-07-11T01:49:46;25.70;99.90
14008;DHT22;61651;45.508;12.232;2022-07-11T01:52:48;25.70;99.90
14008;DHT22;61651;45.508;12.232;2022-07-11T01:55:51;25.80;99.90
14008;DHT22;61651;45.508;12.232;2022-07-11T01:58:53;25.80;99.90
14008;DHT22;61651;45.508;12.232;2022-07-11T02:01:55;25.80;99.90
14008;DHT22;61651;45.508;12.232;2022-07-11T02:04:59;25.70;99.90
14008;DHT22;61651;45.508;12.232;2022-07-11T02:08:01;25.70;99.90
14008;DHT22;61651;45.508;12.232;2022-07-11T02:11:16;25.80;99.90
14008;DHT22;61651;45.508;12.232;2022-07-11T02:14:18;25.80;99.90
14008;DHT22;61651;45.508;12.232;2022-07-11T02:17:20;25.70;99.90
14008;DHT22;61651;45.508;12.232;2022-07-11T02:20:23;25.70;99.90
14008;DHT22;61651;45.508;12.232;2022-07-11T02:23:25;25.80;99.90
14008;DHT22;61651;45.508;12.232;2022-07-11T02:26:28;25.80;99.90
14008;DHT22;61651;45.508;12.232;2022-07-11T02:29:30;25.70;99.90
14008;DHT22;61651;45.508;12.232;2022-07-11T02:32:32;25.70;99.90
14008;DHT22;61651;45.508;12.232;2022-07-11T02:35:34;25.80;99.90
14008;DHT22;61651;45.508;12.232;2022-07-11T02:38:38;25.80;99.90
14008;DHT22;61651;45.508;12.232;2022-07-11T02:41:41;25.70;99.90
14008;DHT22;61651;45.508;12.232;2022-07-11T02:44:43;25.70;99.90
14008;DHT22;61651;45.508;12.232;2022-07-11T02:47:45;25.70;99.90
14008;DHT22;61651;45.508;12.232;2022-07-11T02:50:47;25.60;99.90
14008;DHT22;61651;45.508;12.232;2022-07-11T02:53:49;25.60;99.90
14008;DHT22;61651;45.508;12.232;2022-07-11T02:56:52;25.60;99.90
14008;DHT22;61651;45.508;12.232;2022-07-11T02:59:54;25.60;99.90
14008;DHT22;61651;45.508;12.232;2022-07-11T03:02:57;25.50;99.90
14008;DHT22;61651;45.508;12.232;2022-07-11T03:05:58;25.50;99.90
14008;DHT22;61651;45.508;12.232;2022-07-11T03:09:00;25.50;99.90
14008;DHT22;61651;45.508;12.232;2022-07-11T03:12:05;25.50;99.90
14008;DHT22;61651;45.508;12.232;2022-07-11T03:15:08;25.50;99.90
14008;DHT22;61651;45.508;12.232;2022-07-11T03:18:10;25.50;99.90
14008;DHT22;61651;45.508;12.232;2022-07-11T03:21:12;25.40;99.90
14008;DHT22;61651;45.508;12.232;2022-07-11T03:24:14;25.40;99.90
14008;DHT22;61651;45.508;12.232;2022-07-11T03:27:17;25.40;99.90
14008;DHT22;61651;45.508;12.232;2022-07-11T03:30:19;25.40;99.90
14008;DHT22;61651;45.508;12.232;2022-07-11T03:33:22;25.40;99.90
14008;DHT22;61651;45.508;12.232;2022-07-11T03:36:24;25.40;99.90
14008;DHT22;61651;45.508;12.232;2022-07-11T03:39:26;25.40;99.90
14008;DHT22;61651;45.508;12.232;2022-07-11T03:42:30;25.40;99.90
14008;DHT22;61651;45.508;12.232;2022-07-11T03:45:32;25.40;99.90
14008;DHT22;61651;45.508;12.232;2022-07-11T03:48:34;25.30;99.90
14008;DHT22;61651;45.508;12.232;2022-07-11T03:51:36;25.30;99.90
14008;DHT22;61651;45.508;12.232;2022-07-11T03:54:38;25.30;99.90
14008;DHT22;61651;45.508;12.232;2022-07-11T03:57:42;25.20;99.90
14008;DHT22;61651;45.508;12.232;2022-07-11T04:00:43;25.20;99.90
14008;DHT22;61651;45.508;12.232;2022-07-11T04:03:46;25.20;99.90
14008;DHT22;61651;45.508;12.232;2022-07-11T04:06:48;25.20;99.90
14008;DHT22;61651;45.508;12.232;2022-07-11T04:09:50;25.20;99.90
14008;DHT22;61651;45.508;12.232;2022-07-11T04:12:53;25.20;99.90
14008;DHT22;61651;45.508;12.232;2022-07-11T04:15:55;25.20;99.90
14008;DHT22;61651;45.508;12.232;2022-07-11T04:18:57;25.20;99.90
14008;DHT22;61651;45.508;12.232;2022-07-11T04:21:59;25.10;99.90
14008;DHT22;61651;45.508;12.232;2022-07-11T04:25:01;25.10;99.90
14008;DHT22;61651;45.508;12.232;2022-07-11T04:28:04;25.10;99.90
14008;DHT22;61651;45.508;12.232;2022-07-11T04:31:06;25.10;99.90
14008;DHT22;61651;45.508;12.232;2022-07-11T04:34:08;25.10;99.90
14008;DHT22;61651;45.508;12.232;2022-07-11T04:37:10;25.10;99.90
14008;DHT22;61651;45.508;12.232;2022-07-11T04:40:12;24.90;99.90
14008;DHT22;61651;45.508;12.232;2022-07-11T04:43:16;24.90;99.90
14008;DHT22;61651;45.508;12.232;2022-07-11T04:46:18;25.00;99.90
14008;DHT22;61651;45.508;12.232;2022-07-11T04:49:20;25.00;99.90
14008;DHT22;61651;45.508;12.232;2022-07-11T04:52:22;25.00;99.90
14008;DHT22;61651;45.508;12.232;2022-07-11T04:55:27;25.10;99.90
14008;DHT22;61651;45.508;12.232;2022-07-11T04:58:30;25.10;99.90
14008;DHT22;61651;45.508;12.232;2022-07-11T05:01:33;25.10;99.90
14008;DHT22;61651;45.508;12.232;2022-07-11T05:04:34;25.10;99.90
14008;DHT22;61651;45.508;12.232;2022-07-11T05:07:36;25.10;99.90
14008;DHT22;61651;45.508;12.232;2022-07-11T05:10:38;25.20;99.90
14008;DHT22;61651;45.508;12.232;2022-07-11T05:13:42;25.20;99.90
14008;DHT22;61651;45.508;12.232;2022-07-11T05:16:44;25.30;99.90
14008;DHT22;61651;45.508;12.232;2022-07-11T05:19:46;25.30;99.90
14008;DHT22;61651;45.508;12.232;2022-07-11T05:22:48;25.40;99.90
14008;DHT22;61651;45.508;12.232;2022-07-11T05:25:50;25.40;99.90
14008;DHT22;61651;45.508;12.232;2022-07-11T05:28:54;25.50;99.90
14008;DHT22;61651;45.508;12.232;2022-07-11T05:31:56;25.50;99.90
14008;DHT22;61651;45.508;12.232;2022-07-11T05:34:58;25.60;99.90
14008;DHT22;61651;45.508;12.232;2022-07-11T05:38:01;25.60;99.90
14008;DHT22;61651;45.508;12.232;2022-07-11T05:41:03;25.70;99.90
14008;DHT22;61651;45.508;12.232;2022-07-11T05:44:06;25.80;99.90
14008;DHT22;61651;45.508;12.232;2022-07-11T05:47:08;25.80;99.90
14008;DHT22;61651;45.508;12.232;2022-07-11T05:50:10;25.90;99.90
14008;DHT22;61651;45.508;12.232;2022-07-11T05:53:12;26.00;99.90
14008;DHT22;61651;45.508;12.232;2022-07-11T05:56:15;25.90;99.90
14008;DHT22;61651;45.508;12.232;2022-07-11T05:59:18;26.00;99.90
14008;DHT22;61651;45.508;12.232;2022-07-11T06:02:20;26.10;99.90
14008;DHT22;61651;45.508;12.232;2022-07-11T06:05:23;26.10;99.90
14008;DHT22;61651;45.508;12.232;2022-07-11T06:08:25;26.10;99.90
14008;DHT22;61651;45.508;12.232;2022-07-11T06:11:42;26.10;99.90
14008;DHT22;61651;45.508;12.232;2022-07-11T06:14:45;26.10;99.90
14008;DHT22;61651;45.508;12.232;2022-07-11T06:17:47;26.10;99.90
14008;DHT22;61651;45.508;12.232;2022-07-11T06:20:49;26.10;99.90
14008;DHT22;61651;45.508;12.232;2022-07-11T06:23:51;26.10;99.90
14008;DHT22;61651;45.508;12.232;2022-07-11T06:26:53;26.30;99.90
14008;DHT22;61651;45.508;12.232;2022-07-11T06:30:01;26.30;99.90
14008;DHT22;61651;45.508;12.232;2022-07-11T06:33:03;26.40;99.90
14008;DHT22;61651;45.508;12.232;2022-07-11T06:36:06;26.50;99.90
14008;DHT22;61651;45.508;12.232;2022-07-11T06:39:08;26.50;99.90
14008;DHT22;61651;45.508;12.232;2022-07-11T06:42:10;26.60;99.90
14008;DHT22;61651;45.508;12.232;2022-07-11T06:45:13;26.70;99.90
14008;DHT22;61651;45.508;12.232;2022-07-11T06:48:15;26.70;99.90
14008;DHT22;61651;45.508;12.232;2022-07-11T06:51:17;26.80;99.90
14008;DHT22;61651;45.508;12.232;2022-07-11T06:54:19;26.80;99.90
14008;DHT22;61651;45.508;12.232;2022-07-11T06:57:21;26.80;99.90
14008;DHT22;61651;45.508;12.232;2022-07-11T07:00:25;26.90;99.90
14008;DHT22;61651;45.508;12.232;2022-07-11T07:03:28;26.90;99.90
14008;DHT22;61651;45.508;12.232;2022-07-11T07:06:30;26.90;99.90
14008;DHT22;61651;45.508;12.232;2022-07-11T07:09:32;26.90;99.90
14008;DHT22;61651;45.508;12.232;2022-07-11T07:12:37;26.90;99.90
14008;DHT22;61651;45.508;12.232;2022-07-11T07:15:41;26.90;99.90
14008;DHT22;61651;45.508;12.232;2022-07-11T07:18:43;27.00;99.90
14008;DHT22;61651;45.508;12.232;2022-07-11T07:21:46;27.10;99.90
14008;DHT22;61651;45.508;12.232;2022-07-11T07:24:48;27.20;99.90
14008;DHT22;61651;45.508;12.232;2022-07-11T07:27:50;27.20;99.90
14008;DHT22;61651;45.508;12.232;2022-07-11T07:30:53;27.20;99.90
14008;DHT22;61651;45.508;12.232;2022-07-11T07:33:55;27.30;99.90
14008;DHT22;61651;45.508;12.232;2022-07-11T07:36:57;27.30;99.90
14008;DHT22;61651;45.508;12.232;2022-07-11T07:39:59;27.30;99.90
14008;DHT22;61651;45.508;12.232;2022-07-11T07:43:01;27.30;99.90
14008;DHT22;61651;45.508;12.232;2022-07-11T07:46:05;27.40;99.90
14008;DHT22;61651;45.508;12.232;2022-07-11T07:49:09;27.50;99.90
14008;DHT22;61651;45.508;12.232;2022-07-11T07:52:11;27.50;99.90
14008;DHT22;61651;45.508;12.232;2022-07-11T07:55:13;27.60;99.90
14008;DHT22;61651;45.508;12.232;2022-07-11T07:58:15;27.60;99.90
14008;DHT22;61651;45.508;12.232;2022-07-11T08:01:19;27.80;99.90
14008;DHT22;61651;45.508;12.232;2022-07-11T08:04:36;27.80;99.90
14008;DHT22;61651;45.508;12.232;2022-07-11T08:07:38;27.90;99.90
14008;DHT22;61651;45.508;12.232;2022-07-11T08:10:40;27.90;99.90
14008;DHT22;61651;45.508;12.232;2022-07-11T08:13:42;27.90;99.90
14008;DHT22;61651;45.508;12.232;2022-07-11T08:16:46;28.00;99.90
14008;DHT22;61651;45.508;12.232;2022-07-11T08:19:48;28.10;99.90
14008;DHT22;61651;45.508;12.232;2022-07-11T08:22:50;28.20;99.90
14008;DHT22;61651;45.508;12.232;2022-07-11T08:25:52;28.20;99.90
14008;DHT22;61651;45.508;12.232;2022-07-11T08:28:54;28.30;99.90
14008;DHT22;61651;45.508;12.232;2022-07-11T08:31:58;28.30;99.90
14008;DHT22;61651;45.508;12.232;2022-07-11T08:35:00;28.50;99.90
14008;DHT22;61651;45.508;12.232;2022-07-11T08:38:02;28.50;99.90
14008;DHT22;61651;45.508;12.232;2022-07-11T08:41:04;28.70;99.90
14008;DHT22;61651;45.508;12.232;2022-07-11T08:44:06;28.80;99.90
14008;DHT22;61651;45.508;12.232;2022-07-11T08:47:11;28.90;99.90
14008;DHT22;61651;45.508;12.232;2022-07-11T08:50:13;29.00;99.90
14008;DHT22;61651;45.508;12.232;2022-07-11T08:53:15;28.90;99.90
14008;DHT22;61651;45.508;12.232;2022-07-11T08:56:18;28.80;99.90
14008;DHT22;61651;45.508;12.232;2022-07-11T08:59:23;28.90;99.90
14008;DHT22;61651;45.508;12.232;2022-07-11T09:02:28;29.10;99.90
14008;DHT22;61651;45.508;12.232;2022-07-11T09:05:31;29.20;99.90
14008;DHT22;61651;45.508;12.232;2022-07-11T09:08:34;29.40;99.90
14008;DHT22;61651;45.508;12.232;2022-07-11T09:11:50;29.50;99.90
14008;DHT22;61651;45.508;12.232;2022-07-11T09:14:52;29.30;99.90
14008;DHT22;61651;45.508;12.232;2022-07-11T09:17:56;29.10;99.90
14008;DHT22;61651;45.508;12.232;2022-07-11T09:21:00;29.20;99.90
14008;DHT22;61651;45.508;12.232;2022-07-11T09:24:19;29.50;99.90
14008;DHT22;61651;45.508;12.232;2022-07-11T09:27:47;29.80;99.90
14008;DHT22;61651;45.508;12.232;2022-07-11T09:30:49;29.50;99.90
14008;DHT22;61651;45.508;12.232;2022-07-11T09:34:03;29.30;99.90
14008;DHT22;61651;45.508;12.232;2022-07-11T09:37:05;29.30;99.90
14008;DHT22;61651;45.508;12.232;2022-07-11T09:40:10;29.50;99.90
14008;DHT22;61651;45.508;12.232;2022-07-11T09:43:13;29.80;99.90
14008;DHT22;61651;45.508;12.232;2022-07-11T09:46:19;30.00;99.90
14008;DHT22;61651;45.508;12.232;2022-07-11T09:49:33;29.90;99.90
14008;DHT22;61651;45.508;12.232;2022-07-11T09:52:36;30.20;99.90
14008;DHT22;61651;45.508;12.232;2022-07-11T09:55:39;30.40;99.90
14008;DHT22;61651;45.508;12.232;2022-07-11T09:58:42;30.70;99.90
14008;DHT22;61651;45.508;12.232;2022-07-11T10:01:45;30.80;99.90
14008;DHT22;61651;45.508;12.232;2022-07-11T10:04:48;30.90;99.90
14008;DHT22;61651;45.508;12.232;2022-07-11T10:07:51;30.60;99.90
14008;DHT22;61651;45.508;12.232;2022-07-11T10:10:53;30.60;99.90
14008;DHT22;61651;45.508;12.232;2022-07-11T10:13:55;30.60;99.90
14008;DHT22;61651;45.508;12.232;2022-07-11T10:17:02;30.50;99.90
14008;DHT22;61651;45.508;12.232;2022-07-11T10:20:13;30.50;99.90
14008;DHT22;61651;45.508;12.232;2022-07-11T10:23:22;30.40;99.90
14008;DHT22;61651;45.508;12.232;2022-07-11T10:26:32;30.30;99.90
14008;DHT22;61651;45.508;12.232;2022-07-11T10:29:40;30.20;99.90
14008;DHT22;61651;45.508;12.232;2022-07-11T10:32:59;30.40;99.90
14008;DHT22;61651;45.508;12.232;2022-07-11T10:36:04;30.40;99.90
14008;DHT22;61651;45.508;12.232;2022-07-11T10:39:15;30.50;99.90
14008;DHT22;61651;45.508;12.232;2022-07-11T10:42:19;30.00;99.90
14008;DHT22;61651;45.508;12.232;2022-07-11T10:45:22;30.30;99.90
14008;DHT22;61651;45.508;12.232;2022-07-11T10:48:25;30.80;99.90
14008;DHT22;61651;45.508;12.232;2022-07-11T10:51:33;30.90;99.90
14008;DHT22;61651;45.508;12.232;2022-07-11T10:54:58;30.70;99.90
14008;DHT22;61651;45.508;12.232;2022-07-11T10:58:08;30.20;99.90
14008;DHT22;61651;45.508;12.232;2022-07-11T11:01:13;30.00;99.90
14008;DHT22;61651;45.508;12.232;2022-07-11T11:04:41;30.10;99.90
14008;DHT22;61651;45.508;12.232;2022-07-11T11:07:45;30.40;99.90
14008;DHT22;61651;45.508;12.232;2022-07-11T11:10:47;30.70;99.90
14008;DHT22;61651;45.508;12.232;2022-07-11T11:14:17;30.90;99.90
14008;DHT22;61651;45.508;12.232;2022-07-11T11:17:35;30.70;99.90
14008;DHT22;61651;45.508;12.232;2022-07-11T11:20:38;30.70;99.90
14008;DHT22;61651;45.508;12.232;2022-07-11T11:23:42;30.50;99.90
14008;DHT22;61651;45.508;12.232;2022-07-11T11:26:50;30.80;99.90
14008;DHT22;61651;45.508;12.232;2022-07-11T11:29:53;30.90;99.90
14008;DHT22;61651;45.508;12.232;2022-07-11T11:32:55;30.90;99.90
14008;DHT22;61651;45.508;12.232;2022-07-11T11:36:00;31.10;99.90
14008;DHT22;61651;45.508;12.232;2022-07-11T11:39:03;31.10;99.90
14008;DHT22;61651;45.508;12.232;2022-07-11T11:42:12;31.20;99.90
14008;DHT22;61651;45.508;12.232;2022-07-11T11:45:18;31.40;99.90
14008;DHT22;61651;45.508;12.232;2022-07-11T11:48:28;31.50;99.90
14008;DHT22;61651;45.508;12.232;2022-07-11T11:51:31;31.60;99.90
14008;DHT22;61651;45.508;12.232;2022-07-11T11:54:35;31.70;99.90
14008;DHT22;61651;45.508;12.232;2022-07-11T11:57:38;31.90;99.90
14008;DHT22;61651;45.508;12.232;2022-07-11T12:00:40;31.90;99.90
14008;DHT22;61651;45.508;12.232;2022-07-11T12:03:49;31.80;99.90
14008;DHT22;61651;45.508;12.232;2022-07-11T12:06:51;31.90;99.90
14008;DHT22;61651;45.508;12.232;2022-07-11T12:09:56;31.90;99.90
14008;DHT22;61651;45.508;12.232;2022-07-11T12:12:59;31.90;99.90
14008;DHT22;61651;45.508;12.232;2022-07-11T12:16:01;31.80;99.90
14008;DHT22;61651;45.508;12.232;2022-07-11T12:19:23;31.80;99.90
14008;DHT22;61651;45.508;12.232;2022-07-11T12:22:25;31.70;99.90
14008;DHT22;61651;45.508;12.232;2022-07-11T12:25:31;31.70;99.90
14008;DHT22;61651;45.508;12.232;2022-07-11T12:28:35;31.60;99.90
14008;DHT22;61651;45.508;12.232;2022-07-11T12:32:10;31.70;99.90
14008;DHT22;61651;45.508;12.232;2022-07-11T12:35:14;31.70;99.90
14008;DHT22;61651;45.508;12.232;2022-07-11T12:38:16;31.70;99.90
14008;DHT22;61651;45.508;12.232;2022-07-11T12:41:20;31.80;99.90
14008;DHT22;61651;45.508;12.232;2022-07-11T12:44:22;31.80;99.90
14008;DHT22;61651;45.508;12.232;2022-07-11T12:47:43;31.50;99.90
14008;DHT22;61651;45.508;12.232;2022-07-11T12:50:46;31.50;99.90
14008;DHT22;61651;45.508;12.232;2022-07-11T12:53:48;31.30;99.90
14008;DHT22;61651;45.508;12.232;2022-07-11T12:56:55;31.40;99.90
14008;DHT22;61651;45.508;12.232;2022-07-11T13:00:10;31.70;99.90
14008;DHT22;61651;45.508;12.232;2022-07-11T13:03:27;32.10;99.90
14008;DHT22;61651;45.508;12.232;2022-07-11T13:06:29;32.40;99.90
14008;DHT22;61651;45.508;12.232;2022-07-11T13:09:49;32.60;99.90
14008;DHT22;61651;45.508;12.232;2022-07-11T13:12:54;33.00;99.90
14008;DHT22;61651;45.508;12.232;2022-07-11T13:15:56;32.80;99.90
14008;DHT22;61651;45.508;12.232;2022-07-11T13:18:58;32.80;99.90
14008;DHT22;61651;45.508;12.232;2022-07-11T13:22:00;32.60;99.90
14008;DHT22;61651;45.508;12.232;2022-07-11T13:25:02;32.80;99.90
14008;DHT22;61651;45.508;12.232;2022-07-11T13:28:06;33.20;99.90
14008;DHT22;61651;45.508;12.232;2022-07-11T13:31:08;33.40;99.80
14008;DHT22;61651;45.508;12.232;2022-07-11T13:34:10;33.30;99.80
14008;DHT22;61651;45.508;12.232;2022-07-11T13:37:12;33.40;99.70
14008;DHT22;61651;45.508;12.232;2022-07-11T13:40:16;33.30;99.60
14008;DHT22;61651;45.508;12.232;2022-07-11T13:43:20;33.20;99.90
14008;DHT22;61651;45.508;12.232;2022-07-11T13:46:22;33.60;99.90
14008;DHT22;61651;45.508;12.232;2022-07-11T13:49:24;33.80;99.80
14008;DHT22;61651;45.508;12.232;2022-07-11T13:52:26;34.20;99.60
14008;DHT22;61651;45.508;12.232;2022-07-11T13:55:28;34.80;98.70
14008;DHT22;61651;45.508;12.232;2022-07-11T13:58:32;35.30;97.20
14008;DHT22;61651;45.508;12.232;2022-07-11T14:01:34;35.40;97.00
14008;DHT22;61651;45.508;12.232;2022-07-11T14:04:36;35.30;96.90
14008;DHT22;61651;45.508;12.232;2022-07-11T14:07:38;35.60;97.40
14008;DHT22;61651;45.508;12.232;2022-07-11T14:10:40;35.70;96.90
14008;DHT22;61651;45.508;12.232;2022-07-11T14:13:44;36.00;97.20
14008;DHT22;61651;45.508;12.232;2022-07-11T14:16:47;36.20;96.30
14008;DHT22;61651;45.508;12.232;2022-07-11T14:19:49;35.80;96.50
14008;DHT22;61651;45.508;12.232;2022-07-11T14:22:50;35.40;97.10
14008;DHT22;61651;45.508;12.232;2022-07-11T14:25:52;35.60;97.00
14008;DHT22;61651;45.508;12.232;2022-07-11T14:28:56;36.10;97.10
14008;DHT22;61651;45.508;12.232;2022-07-11T14:31:58;36.40;96.30
14008;DHT22;61651;45.508;12.232;2022-07-11T14:35:00;36.60;95.90
14008;DHT22;61651;45.508;12.232;2022-07-11T14:38:02;37.00;95.90
14008;DHT22;61651;45.508;12.232;2022-07-11T14:41:05;37.10;95.90
14008;DHT22;61651;45.508;12.232;2022-07-11T14:44:08;37.40;95.10
14008;DHT22;61651;45.508;12.232;2022-07-11T14:47:10;37.10;95.20
14008;DHT22;61651;45.508;12.232;2022-07-11T14:50:12;37.10;95.40
14008;DHT22;61651;45.508;12.232;2022-07-11T14:53:15;37.00;94.70
14008;DHT22;61651;45.508;12.232;2022-07-11T14:56:17;37.20;94.60
14008;DHT22;61651;45.508;12.232;2022-07-11T14:59:20;37.20;94.80
14008;DHT22;61651;45.508;12.232;2022-07-11T15:02:22;37.20;94.50
14008;DHT22;61651;45.508;12.232;2022-07-11T15:05:38;37.20;93.40
14008;DHT22;61651;45.508;12.232;2022-07-11T15:08:40;37.60;94.20
14008;DHT22;61651;45.508;12.232;2022-07-11T15:12:00;37.70;93.20
14008;DHT22;61651;45.508;12.232;2022-07-11T15:15:21;37.40;93.40
14008;DHT22;61651;45.508;12.232;2022-07-11T15:18:22;37.70;93.50
14008;DHT22;61651;45.508;12.232;2022-07-11T15:21:25;37.40;93.10
14008;DHT22;61651;45.508;12.232;2022-07-11T15:24:27;37.20;93.20
14008;DHT22;61651;45.508;12.232;2022-07-11T15:27:29;37.00;93.40
14008;DHT22;61651;45.508;12.232;2022-07-11T15:30:33;37.10;92.90
14008;DHT22;61651;45.508;12.232;2022-07-11T15:33:34;36.50;92.80
14008;DHT22;61651;45.508;12.232;2022-07-11T15:36:36;36.60;93.30
14008;DHT22;61651;45.508;12.232;2022-07-11T15:39:38;36.50;93.20
14008;DHT22;61651;45.508;12.232;2022-07-11T15:42:41;36.70;93.30
14008;DHT22;61651;45.508;12.232;2022-07-11T15:45:44;36.60;93.10
14008;DHT22;61651;45.508;12.232;2022-07-11T15:48:46;36.50;93.10
14008;DHT22;61651;45.508;12.232;2022-07-11T15:51:49;36.40;93.80
14008;DHT22;61651;45.508;12.232;2022-07-11T15:54:52;36.20;93.40
14008;DHT22;61651;45.508;12.232;2022-07-11T15:57:53;35.70;93.90
14008;DHT22;61651;45.508;12.232;2022-07-11T16:00:57;35.20;94.40
14008;DHT22;61651;45.508;12.232;2022-07-11T16:04:00;35.20;94.80
14008;DHT22;61651;45.508;12.232;2022-07-11T16:07:03;35.00;94.60
14008;DHT22;61651;45.508;12.232;2022-07-11T16:10:06;34.70;95.20
14008;DHT22;61651;45.508;12.232;2022-07-11T16:13:08;34.90;95.00
14008;DHT22;61651;45.508;12.232;2022-07-11T16:16:12;34.80;95.20
14008;DHT22;61651;45.508;12.232;2022-07-11T16:19:15;34.90;95.20
14008;DHT22;61651;45.508;12.232;2022-07-11T16:22:17;34.50;95.10
14008;DHT22;61651;45.508;12.232;2022-07-11T16:25:19;34.20;95.40
14008;DHT22;61651;45.508;12.232;2022-07-11T16:28:21;33.80;95.50
14008;DHT22;61651;45.508;12.232;2022-07-11T16:31:25;33.20;95.90
14008;DHT22;61651;45.508;12.232;2022-07-11T16:34:27;32.70;96.30
14008;DHT22;61651;45.508;12.232;2022-07-11T16:37:29;32.20;97.30
14008;DHT22;61651;45.508;12.232;2022-07-11T16:40:31;32.00;97.30
14008;DHT22;61651;45.508;12.232;2022-07-11T16:43:52;31.70;97.50
14008;DHT22;61651;45.508;12.232;2022-07-11T16:46:56;31.60;97.60
14008;DHT22;61651;45.508;12.232;2022-07-11T16:49:58;31.50;97.60
14008;DHT22;61651;45.508;12.232;2022-07-11T16:53:00;31.50;97.90
14008;DHT22;61651;45.508;12.232;2022-07-11T16:56:02;31.30;97.70
14008;DHT22;61651;45.508;12.232;2022-07-11T16:59:05;30.90;97.90
14008;DHT22;61651;45.508;12.232;2022-07-11T17:02:08;30.60;98.10
14008;DHT22;61651;45.508;12.232;2022-07-11T17:05:12;30.60;98.30
14008;DHT22;61651;45.508;12.232;2022-07-11T17:08:14;30.50;99.00
14008;DHT22;61651;45.508;12.232;2022-07-11T17:11:34;30.40;99.40
14008;DHT22;61651;45.508;12.232;2022-07-11T17:14:36;30.30;99.70
14008;DHT22;61651;45.508;12.232;2022-07-11T17:17:39;30.30;99.90
14008;DHT22;61651;45.508;12.232;2022-07-11T17:20:42;30.10;99.90
14008;DHT22;61651;45.508;12.232;2022-07-11T17:23:46;29.80;99.90
14008;DHT22;61651;45.508;12.232;2022-07-11T17:26:48;29.70;99.90
14008;DHT22;61651;45.508;12.232;2022-07-11T17:29:50;29.60;99.90
14008;DHT22;61651;45.508;12.232;2022-07-11T17:32:54;29.50;99.90
14008;DHT22;61651;45.508;12.232;2022-07-11T17:35:58;29.60;99.90
14008;DHT22;61651;45.508;12.232;2022-07-11T17:39:00;29.60;99.90
14008;DHT22;61651;45.508;12.232;2022-07-11T17:42:03;29.40;99.90
14008;DHT22;61651;45.508;12.232;2022-07-11T17:45:06;29.60;99.90
14008;DHT22;61651;45.508;12.232;2022-07-11T17:48:10;29.80;99.90
14008;DHT22;61651;45.508;12.232;2022-07-11T17:51:13;29.90;99.90
14008;DHT22;61651;45.508;12.232;2022-07-11T17:54:15;29.90;99.90
14008;DHT22;61651;45.508;12.232;2022-07-11T17:57:17;29.90;99.90
14008;DHT22;61651;45.508;12.232;2022-07-11T18:00:19;29.90;99.90
14008;DHT22;61651;45.508;12.232;2022-07-11T18:03:24;29.80;99.90
14008;DHT22;61651;45.508;12.232;2022-07-11T18:06:26;29.80;99.90
14008;DHT22;61651;45.508;12.232;2022-07-11T18:09:28;29.80;99.90
14008;DHT22;61651;45.508;12.232;2022-07-11T18:12:30;29.80;99.90
14008;DHT22;61651;45.508;12.232;2022-07-11T18:15:35;29.70;99.90
14008;DHT22;61651;45.508;12.232;2022-07-11T18:18:38;29.70;99.90
14008;DHT22;61651;45.508;12.232;2022-07-11T18:21:40;29.60;99.90
14008;DHT22;61651;45.508;12.232;2022-07-11T18:24:42;29.50;99.90
14008;DHT22;61651;45.508;12.232;2022-07-11T18:27:44;29.40;99.90
14008;DHT22;61651;45.508;12.232;2022-07-11T18:30:46;29.30;99.90
14008;DHT22;61651;45.508;12.232;2022-07-11T18:33:50;29.30;99.90
14008;DHT22;61651;45.508;12.232;2022-07-11T18:36:52;29.30;99.90
14008;DHT22;61651;45.508;12.232;2022-07-11T18:39:54;29.20;99.90
14008;DHT22;61651;45.508;12.232;2022-07-11T18:43:13;29.20;99.90
14008;DHT22;61651;45.508;12.232;2022-07-11T18:46:15;29.20;99.90
14008;DHT22;61651;45.508;12.232;2022-07-11T18:49:18;29.20;99.90
14008;DHT22;61651;45.508;12.232;2022-07-11T18:52:20;29.20;99.90
14008;DHT22;61651;45.508;12.232;2022-07-11T18:55:24;29.20;99.90
14008;DHT22;61651;45.508;12.232;2022-07-11T18:58:26;29.10;99.90
14008;DHT22;61651;45.508;12.232;2022-07-11T19:01:28;29.10;99.90
14008;DHT22;61651;45.508;12.232;2022-07-11T19:04:31;29.10;99.90